sensor_id;sensor_type;location;lat;lon;timestamp;P1;durP1;ratioP1;P2;durP2;ratioP2
76292;SDS011;67256;51.154;4.164;2023-07-29T00:00:49;3.42;;;1.40;;
76292;SDS011;67256;51.154;4.164;2023-07-29T00:03:15;2.15;;;1.10;;
76292;SDS011;67256;51.154;4.164;2023-07-29T00:05:41;5.13;;;1.80;;
76292;SDS011;67256;51.154;4.164;2023-07-29T00:08:07;2.90;;;1.40;;
76292;SDS011;67256;51.154;4.164;2023-07-29T00:10:34;3.03;;;1.92;;
76292;SDS011;67256;51.154;4.164;2023-07-29T00:13:02;1.92;;;1.25;;
76292;SDS011;67256;51.154;4.164;2023-07-29T00:15:29;3.35;;;1.30;;
76292;SDS011;67256;51.154;4.164;2023-07-29T00:17:54;1.90;;;1.23;;
76292;SDS011;67256;51.154;4.164;2023-07-29T00:20:20;2.85;;;1.48;;
76292;SDS011;67256;51.154;4.164;2023-07-29T00:22:46;2.90;;;1.45;;
76292;SDS011;67256;51.154;4.164;2023-07-29T00:25:11;2.17;;;1.27;;
76292;SDS011;67256;51.154;4.164;2023-07-29T00:27:37;2.97;;;2.22;;
76292;SDS011;67256;51.154;4.164;2023-07-29T00:30:03;4.63;;;1.75;;
76292;SDS011;67256;51.154;4.164;2023-07-29T00:32:29;2.78;;;1.38;;
76292;SDS011;67256;51.154;4.164;2023-07-29T00:34:56;2.58;;;1.50;;
76292;SDS011;67256;51.154;4.164;2023-07-29T00:37:21;4.90;;;1.58;;
76292;SDS011;67256;51.154;4.164;2023-07-29T00:39:47;3.22;;;1.67;;
76292;SDS011;67256;51.154;4.164;2023-07-29T00:42:13;4.78;;;1.65;;
76292;SDS011;67256;51.154;4.164;2023-07-29T00:44:38;3.35;;;1.48;;
76292;SDS011;67256;51.154;4.164;2023-07-29T00:47:04;4.55;;;1.75;;
76292;SDS011;67256;51.154;4.164;2023-07-29T00:49:32;2.88;;;1.48;;
76292;SDS011;67256;51.154;4.164;2023-07-29T00:51:58;2.20;;;1.60;;
76292;SDS011;67256;51.154;4.164;2023-07-29T00:54:24;4.43;;;1.85;;
76292;SDS011;67256;51.154;4.164;2023-07-29T00:56:49;5.78;;;1.80;;
76292;SDS011;67256;51.154;4.164;2023-07-29T00:59:16;4.03;;;1.85;;
76292;SDS011;67256;51.154;4.164;2023-07-29T01:01:42;2.88;;;1.55;;
76292;SDS011;67256;51.154;4.164;2023-07-29T01:04:08;3.10;;;1.60;;
76292;SDS011;67256;51.154;4.164;2023-07-29T01:09:43;4.25;;;1.40;;
76292;SDS011;67256;51.154;4.164;2023-07-29T01:12:26;3.03;;;1.60;;
76292;SDS011;67256;51.154;4.164;2023-07-29T01:15:14;4.15;;;1.60;;
76292;SDS011;67256;51.154;4.164;2023-07-29T01:17:49;4.75;;;1.25;;
76292;SDS011;67256;51.154;4.164;2023-07-29T01:20:19;5.78;;;1.63;;
76292;SDS011;67256;51.154;4.164;2023-07-29T01:22:46;2.92;;;1.40;;
76292;SDS011;67256;51.154;4.164;2023-07-29T01:25:12;2.72;;;1.40;;
76292;SDS011;67256;51.154;4.164;2023-07-29T01:27:38;3.25;;;2.17;;
76292;SDS011;67256;51.154;4.164;2023-07-29T01:30:05;4.10;;;1.60;;
76292;SDS011;67256;51.154;4.164;2023-07-29T01:32:36;3.35;;;1.50;;
76292;SDS011;67256;51.154;4.164;2023-07-29T01:35:31;2.58;;;1.60;;
76292;SDS011;67256;51.154;4.164;2023-07-29T01:38:24;3.05;;;1.75;;
76292;SDS011;67256;51.154;4.164;2023-07-29T01:40:56;3.60;;;2.03;;
76292;SDS011;67256;51.154;4.164;2023-07-29T01:43:26;3.63;;;2.30;;
76292;SDS011;67256;51.154;4.164;2023-07-29T01:48:22;3.65;;;2.17;;
76292;SDS011;67256;51.154;4.164;2023-07-29T01:50:48;3.95;;;2.20;;
76292;SDS011;67256;51.154;4.164;2023-07-29T01:53:14;8.20;;;2.03;;
76292;SDS011;67256;51.154;4.164;2023-07-29T01:55:40;5.20;;;2.25;;
76292;SDS011;67256;51.154;4.164;2023-07-29T01:58:06;3.55;;;2.03;;
76292;SDS011;67256;51.154;4.164;2023-07-29T02:00:32;9.32;;;2.10;;
76292;SDS011;67256;51.154;4.164;2023-07-29T02:02:58;3.75;;;2.03;;
76292;SDS011;67256;51.154;4.164;2023-07-29T02:05:23;4.25;;;2.30;;
76292;SDS011;67256;51.154;4.164;2023-07-29T02:07:49;4.93;;;1.90;;
76292;SDS011;67256;51.154;4.164;2023-07-29T02:10:15;4.28;;;2.22;;
76292;SDS011;67256;51.154;4.164;2023-07-29T02:12:41;5.47;;;2.10;;
76292;SDS011;67256;51.154;4.164;2023-07-29T02:15:06;3.00;;;1.92;;
76292;SDS011;67256;51.154;4.164;2023-07-29T02:17:33;3.42;;;1.90;;
76292;SDS011;67256;51.154;4.164;2023-07-29T02:19:59;3.58;;;1.85;;
76292;SDS011;67256;51.154;4.164;2023-07-29T02:22:25;4.30;;;1.60;;
76292;SDS011;67256;51.154;4.164;2023-07-29T02:24:51;3.53;;;2.35;;
76292;SDS011;67256;51.154;4.164;2023-07-29T02:27:17;6.22;;;2.05;;
76292;SDS011;67256;51.154;4.164;2023-07-29T02:29:43;3.63;;;2.55;;
76292;SDS011;67256;51.154;4.164;2023-07-29T02:32:09;3.67;;;2.40;;
76292;SDS011;67256;51.154;4.164;2023-07-29T02:34:34;4.63;;;2.10;;
76292;SDS011;67256;51.154;4.164;2023-07-29T02:37:00;3.55;;;2.40;;
76292;SDS011;67256;51.154;4.164;2023-07-29T02:39:25;3.00;;;1.85;;
76292;SDS011;67256;51.154;4.164;2023-07-29T02:41:51;5.93;;;2.40;;
76292;SDS011;67256;51.154;4.164;2023-07-29T02:44:17;3.80;;;2.10;;
76292;SDS011;67256;51.154;4.164;2023-07-29T02:46:44;5.18;;;2.28;;
76292;SDS011;67256;51.154;4.164;2023-07-29T02:49:10;5.70;;;2.13;;
76292;SDS011;67256;51.154;4.164;2023-07-29T02:51:35;4.47;;;2.00;;
76292;SDS011;67256;51.154;4.164;2023-07-29T02:54:01;6.22;;;2.70;;
76292;SDS011;67256;51.154;4.164;2023-07-29T02:56:27;3.58;;;1.80;;
76292;SDS011;67256;51.154;4.164;2023-07-29T02:58:53;4.85;;;2.20;;
76292;SDS011;67256;51.154;4.164;2023-07-29T03:01:18;5.60;;;1.88;;
76292;SDS011;67256;51.154;4.164;2023-07-29T03:03:44;7.00;;;2.28;;
76292;SDS011;67256;51.154;4.164;2023-07-29T03:06:14;4.45;;;2.17;;
76292;SDS011;67256;51.154;4.164;2023-07-29T03:08:40;4.82;;;2.50;;
76292;SDS011;67256;51.154;4.164;2023-07-29T03:11:07;4.18;;;2.45;;
76292;SDS011;67256;51.154;4.164;2023-07-29T03:13:38;6.97;;;2.67;;
76292;SDS011;67256;51.154;4.164;2023-07-29T03:16:11;3.58;;;2.20;;
76292;SDS011;67256;51.154;4.164;2023-07-29T03:18:38;3.80;;;2.25;;
76292;SDS011;67256;51.154;4.164;2023-07-29T03:21:04;6.72;;;2.45;;
76292;SDS011;67256;51.154;4.164;2023-07-29T03:23:31;4.28;;;1.98;;
76292;SDS011;67256;51.154;4.164;2023-07-29T03:25:58;5.55;;;1.98;;
76292;SDS011;67256;51.154;4.164;2023-07-29T03:28:32;3.05;;;1.98;;
76292;SDS011;67256;51.154;4.164;2023-07-29T03:30:58;5.35;;;2.63;;
76292;SDS011;67256;51.154;4.164;2023-07-29T03:33:25;2.65;;;1.77;;
76292;SDS011;67256;51.154;4.164;2023-07-29T03:35:51;5.03;;;2.63;;
76292;SDS011;67256;51.154;4.164;2023-07-29T03:38:17;3.08;;;2.10;;
76292;SDS011;67256;51.154;4.164;2023-07-29T03:40:43;4.20;;;1.98;;
76292;SDS011;67256;51.154;4.164;2023-07-29T03:43:09;4.25;;;2.45;;
76292;SDS011;67256;51.154;4.164;2023-07-29T03:45:36;6.15;;;2.47;;
76292;SDS011;67256;51.154;4.164;2023-07-29T03:48:03;5.25;;;2.55;;
76292;SDS011;67256;51.154;4.164;2023-07-29T03:50:29;4.32;;;2.22;;
76292;SDS011;67256;51.154;4.164;2023-07-29T03:52:56;2.70;;;1.98;;
76292;SDS011;67256;51.154;4.164;2023-07-29T03:55:22;4.22;;;2.10;;
76292;SDS011;67256;51.154;4.164;2023-07-29T03:57:47;6.70;;;2.47;;
76292;SDS011;67256;51.154;4.164;2023-07-29T04:00:13;4.97;;;2.00;;
76292;SDS011;67256;51.154;4.164;2023-07-29T04:02:39;6.15;;;2.60;;
76292;SDS011;67256;51.154;4.164;2023-07-29T04:05:06;4.20;;;2.35;;
76292;SDS011;67256;51.154;4.164;2023-07-29T04:07:33;6.50;;;2.65;;
76292;SDS011;67256;51.154;4.164;2023-07-29T04:10:00;3.58;;;1.90;;
76292;SDS011;67256;51.154;4.164;2023-07-29T04:12:26;3.08;;;1.98;;
76292;SDS011;67256;51.154;4.164;2023-07-29T04:14:52;6.18;;;2.55;;
76292;SDS011;67256;51.154;4.164;2023-07-29T04:17:18;3.95;;;2.00;;
76292;SDS011;67256;51.154;4.164;2023-07-29T04:19:44;4.03;;;2.40;;
76292;SDS011;67256;51.154;4.164;2023-07-29T04:22:10;5.10;;;1.95;;
76292;SDS011;67256;51.154;4.164;2023-07-29T04:24:35;3.40;;;2.10;;
76292;SDS011;67256;51.154;4.164;2023-07-29T04:27:01;4.15;;;2.28;;
76292;SDS011;67256;51.154;4.164;2023-07-29T04:29:27;4.93;;;2.08;;
76292;SDS011;67256;51.154;4.164;2023-07-29T04:31:52;4.47;;;2.42;;
76292;SDS011;67256;51.154;4.164;2023-07-29T04:34:18;5.43;;;2.10;;
76292;SDS011;67256;51.154;4.164;2023-07-29T04:36:45;6.07;;;1.77;;
76292;SDS011;67256;51.154;4.164;2023-07-29T04:39:11;4.90;;;2.30;;
76292;SDS011;67256;51.154;4.164;2023-07-29T04:41:37;4.63;;;2.03;;
76292;SDS011;67256;51.154;4.164;2023-07-29T04:44:03;3.10;;;1.80;;
76292;SDS011;67256;51.154;4.164;2023-07-29T04:46:29;3.95;;;2.10;;
76292;SDS011;67256;51.154;4.164;2023-07-29T04:48:54;4.38;;;2.08;;
76292;SDS011;67256;51.154;4.164;2023-07-29T04:51:20;3.42;;;1.90;;
76292;SDS011;67256;51.154;4.164;2023-07-29T04:53:46;2.80;;;1.83;;
76292;SDS011;67256;51.154;4.164;2023-07-29T04:56:12;4.97;;;2.42;;
76292;SDS011;67256;51.154;4.164;2023-07-29T04:58:38;7.13;;;2.13;;
76292;SDS011;67256;51.154;4.164;2023-07-29T05:01:04;4.38;;;1.98;;
76292;SDS011;67256;51.154;4.164;2023-07-29T05:03:29;4.50;;;2.10;;
76292;SDS011;67256;51.154;4.164;2023-07-29T05:05:55;3.17;;;1.70;;
76292;SDS011;67256;51.154;4.164;2023-07-29T05:08:22;3.42;;;1.80;;
76292;SDS011;67256;51.154;4.164;2023-07-29T05:10:51;4.45;;;1.80;;
76292;SDS011;67256;51.154;4.164;2023-07-29T05:13:17;4.03;;;2.00;;
76292;SDS011;67256;51.154;4.164;2023-07-29T05:15:44;3.95;;;2.00;;
76292;SDS011;67256;51.154;4.164;2023-07-29T05:18:10;3.90;;;1.70;;
76292;SDS011;67256;51.154;4.164;2023-07-29T05:20:36;4.13;;;1.90;;
76292;SDS011;67256;51.154;4.164;2023-07-29T05:23:02;3.40;;;1.80;;
76292;SDS011;67256;51.154;4.164;2023-07-29T05:25:28;3.03;;;1.77;;
76292;SDS011;67256;51.154;4.164;2023-07-29T05:27:54;6.13;;;2.00;;
76292;SDS011;67256;51.154;4.164;2023-07-29T05:30:19;3.95;;;2.30;;
76292;SDS011;67256;51.154;4.164;2023-07-29T05:32:45;6.65;;;1.98;;
76292;SDS011;67256;51.154;4.164;2023-07-29T05:35:11;5.70;;;2.42;;
76292;SDS011;67256;51.154;4.164;2023-07-29T05:37:38;3.90;;;1.90;;
76292;SDS011;67256;51.154;4.164;2023-07-29T05:40:05;3.65;;;1.98;;
76292;SDS011;67256;51.154;4.164;2023-07-29T05:42:32;3.92;;;2.03;;
76292;SDS011;67256;51.154;4.164;2023-07-29T05:44:58;3.13;;;1.75;;
76292;SDS011;67256;51.154;4.164;2023-07-29T05:47:24;2.70;;;1.45;;
76292;SDS011;67256;51.154;4.164;2023-07-29T05:49:50;3.83;;;1.80;;
76292;SDS011;67256;51.154;4.164;2023-07-29T05:52:15;3.33;;;1.88;;
76292;SDS011;67256;51.154;4.164;2023-07-29T05:54:41;4.53;;;1.77;;
76292;SDS011;67256;51.154;4.164;2023-07-29T05:57:08;4.07;;;1.85;;
76292;SDS011;67256;51.154;4.164;2023-07-29T05:59:35;3.42;;;2.00;;
76292;SDS011;67256;51.154;4.164;2023-07-29T06:02:00;4.47;;;1.52;;
76292;SDS011;67256;51.154;4.164;2023-07-29T06:04:26;4.35;;;1.80;;
76292;SDS011;67256;51.154;4.164;2023-07-29T06:06:52;4.57;;;2.00;;
76292;SDS011;67256;51.154;4.164;2023-07-29T06:09:17;3.05;;;1.60;;
76292;SDS011;67256;51.154;4.164;2023-07-29T06:11:43;2.72;;;1.45;;
76292;SDS011;67256;51.154;4.164;2023-07-29T06:14:09;2.45;;;1.55;;
76292;SDS011;67256;51.154;4.164;2023-07-29T06:16:34;2.38;;;1.40;;
76292;SDS011;67256;51.154;4.164;2023-07-29T06:19:00;2.50;;;1.23;;
76292;SDS011;67256;51.154;4.164;2023-07-29T06:21:26;4.03;;;1.63;;
76292;SDS011;67256;51.154;4.164;2023-07-29T06:23:51;2.40;;;1.50;;
76292;SDS011;67256;51.154;4.164;2023-07-29T06:26:18;12.38;;;2.15;;
76292;SDS011;67256;51.154;4.164;2023-07-29T06:28:44;3.75;;;1.50;;
76292;SDS011;67256;51.154;4.164;2023-07-29T06:31:09;5.70;;;1.80;;
76292;SDS011;67256;51.154;4.164;2023-07-29T06:33:35;1.58;;;1.17;;
76292;SDS011;67256;51.154;4.164;2023-07-29T06:36:01;4.10;;;1.92;;
76292;SDS011;67256;51.154;4.164;2023-07-29T06:38:27;7.13;;;2.22;;
76292;SDS011;67256;51.154;4.164;2023-07-29T06:40:52;2.08;;;1.27;;
76292;SDS011;67256;51.154;4.164;2023-07-29T06:43:18;3.03;;;1.35;;
76292;SDS011;67256;51.154;4.164;2023-07-29T06:45:44;4.70;;;1.60;;
76292;SDS011;67256;51.154;4.164;2023-07-29T06:48:09;4.30;;;1.75;;
76292;SDS011;67256;51.154;4.164;2023-07-29T06:50:35;5.68;;;1.60;;
76292;SDS011;67256;51.154;4.164;2023-07-29T06:53:01;8.40;;;1.90;;
76292;SDS011;67256;51.154;4.164;2023-07-29T06:55:26;2.60;;;1.33;;
76292;SDS011;67256;51.154;4.164;2023-07-29T06:57:52;4.75;;;1.70;;
76292;SDS011;67256;51.154;4.164;2023-07-29T07:00:18;2.47;;;1.40;;
76292;SDS011;67256;51.154;4.164;2023-07-29T07:02:43;2.92;;;1.70;;
76292;SDS011;67256;51.154;4.164;2023-07-29T07:05:09;5.90;;;1.45;;
76292;SDS011;67256;51.154;4.164;2023-07-29T07:07:35;3.10;;;1.42;;
76292;SDS011;67256;51.154;4.164;2023-07-29T07:10:03;3.88;;;1.58;;
76292;SDS011;67256;51.154;4.164;2023-07-29T07:12:29;3.10;;;1.45;;
76292;SDS011;67256;51.154;4.164;2023-07-29T07:14:54;4.30;;;1.52;;
76292;SDS011;67256;51.154;4.164;2023-07-29T07:17:20;4.00;;;1.35;;
76292;SDS011;67256;51.154;4.164;2023-07-29T07:19:46;2.20;;;1.30;;
76292;SDS011;67256;51.154;4.164;2023-07-29T07:22:11;2.10;;;1.20;;
76292;SDS011;67256;51.154;4.164;2023-07-29T07:24:37;2.92;;;1.40;;
76292;SDS011;67256;51.154;4.164;2023-07-29T07:27:03;3.40;;;1.17;;
76292;SDS011;67256;51.154;4.164;2023-07-29T07:29:29;2.90;;;1.40;;
76292;SDS011;67256;51.154;4.164;2023-07-29T07:31:55;2.90;;;1.23;;
76292;SDS011;67256;51.154;4.164;2023-07-29T07:34:21;3.40;;;1.17;;
76292;SDS011;67256;51.154;4.164;2023-07-29T07:36:47;2.00;;;0.95;;
76292;SDS011;67256;51.154;4.164;2023-07-29T07:39:13;4.43;;;1.25;;
76292;SDS011;67256;51.154;4.164;2023-07-29T07:41:40;2.50;;;1.50;;
76292;SDS011;67256;51.154;4.164;2023-07-29T07:44:06;3.10;;;1.50;;
76292;SDS011;67256;51.154;4.164;2023-07-29T07:46:32;2.85;;;1.40;;
76292;SDS011;67256;51.154;4.164;2023-07-29T07:48:58;1.73;;;0.93;;
76292;SDS011;67256;51.154;4.164;2023-07-29T07:51:24;2.85;;;1.30;;
76292;SDS011;67256;51.154;4.164;2023-07-29T07:53:49;4.88;;;1.25;;
76292;SDS011;67256;51.154;4.164;2023-07-29T07:56:15;2.50;;;1.02;;
76292;SDS011;67256;51.154;4.164;2023-07-29T07:58:41;1.77;;;1.20;;
76292;SDS011;67256;51.154;4.164;2023-07-29T08:01:07;2.75;;;1.55;;
76292;SDS011;67256;51.154;4.164;2023-07-29T08:03:34;5.00;;;1.80;;
76292;SDS011;67256;51.154;4.164;2023-07-29T08:06:00;3.72;;;1.02;;
76292;SDS011;67256;51.154;4.164;2023-07-29T08:08:27;2.40;;;1.30;;
76292;SDS011;67256;51.154;4.164;2023-07-29T08:10:53;3.55;;;1.20;;
76292;SDS011;67256;51.154;4.164;2023-07-29T08:13:23;8.25;;;1.40;;
76292;SDS011;67256;51.154;4.164;2023-07-29T08:15:52;3.80;;;1.02;;
76292;SDS011;67256;51.154;4.164;2023-07-29T08:18:18;3.13;;;1.30;;
76292;SDS011;67256;51.154;4.164;2023-07-29T08:20:51;4.68;;;1.50;;
76292;SDS011;67256;51.154;4.164;2023-07-29T08:23:18;3.08;;;1.33;;
76292;SDS011;67256;51.154;4.164;2023-07-29T08:25:45;5.38;;;0.90;;
76292;SDS011;67256;51.154;4.164;2023-07-29T08:28:31;1.60;;;0.82;;
76292;SDS011;67256;51.154;4.164;2023-07-29T08:30:58;3.67;;;1.20;;
76292;SDS011;67256;51.154;4.164;2023-07-29T08:33:24;2.85;;;0.88;;
76292;SDS011;67256;51.154;4.164;2023-07-29T08:35:52;4.30;;;1.63;;
76292;SDS011;67256;51.154;4.164;2023-07-29T08:38:18;4.10;;;1.10;;
76292;SDS011;67256;51.154;4.164;2023-07-29T08:40:52;4.53;;;1.58;;
76292;SDS011;67256;51.154;4.164;2023-07-29T08:43:19;3.15;;;1.10;;
76292;SDS011;67256;51.154;4.164;2023-07-29T08:45:49;2.47;;;1.10;;
76292;SDS011;67256;51.154;4.164;2023-07-29T08:48:16;1.50;;;1.10;;
76292;SDS011;67256;51.154;4.164;2023-07-29T08:50:49;3.20;;;1.25;;
76292;SDS011;67256;51.154;4.164;2023-07-29T08:53:17;2.67;;;1.30;;
76292;SDS011;67256;51.154;4.164;2023-07-29T08:55:43;2.15;;;1.13;;
76292;SDS011;67256;51.154;4.164;2023-07-29T08:58:09;9.95;;;2.05;;
76292;SDS011;67256;51.154;4.164;2023-07-29T09:00:35;3.40;;;1.50;;
76292;SDS011;67256;51.154;4.164;2023-07-29T09:03:02;5.70;;;1.40;;
76292;SDS011;67256;51.154;4.164;2023-07-29T09:05:32;3.50;;;1.40;;
76292;SDS011;67256;51.154;4.164;2023-07-29T09:07:58;2.53;;;1.30;;
76292;SDS011;67256;51.154;4.164;2023-07-29T09:10:25;2.45;;;1.40;;
76292;SDS011;67256;51.154;4.164;2023-07-29T09:12:51;5.80;;;1.55;;
76292;SDS011;67256;51.154;4.164;2023-07-29T09:15:31;2.55;;;1.17;;
76292;SDS011;67256;51.154;4.164;2023-07-29T09:17:58;2.67;;;1.15;;
76292;SDS011;67256;51.154;4.164;2023-07-29T09:20:33;2.38;;;1.30;;
76292;SDS011;67256;51.154;4.164;2023-07-29T09:22:59;3.75;;;1.30;;
76292;SDS011;67256;51.154;4.164;2023-07-29T09:25:29;3.85;;;1.75;;
76292;SDS011;67256;51.154;4.164;2023-07-29T09:27:58;2.10;;;1.30;;
76292;SDS011;67256;51.154;4.164;2023-07-29T09:30:28;2.22;;;1.20;;
76292;SDS011;67256;51.154;4.164;2023-07-29T09:32:57;2.13;;;1.42;;
76292;SDS011;67256;51.154;4.164;2023-07-29T09:37:50;2.45;;;1.27;;
76292;SDS011;67256;51.154;4.164;2023-07-29T09:40:17;3.60;;;1.40;;
76292;SDS011;67256;51.154;4.164;2023-07-29T09:42:53;2.58;;;1.30;;
76292;SDS011;67256;51.154;4.164;2023-07-29T09:45:20;4.43;;;1.92;;
76292;SDS011;67256;51.154;4.164;2023-07-29T09:47:50;3.58;;;1.80;;
76292;SDS011;67256;51.154;4.164;2023-07-29T09:50:17;2.42;;;1.50;;
76292;SDS011;67256;51.154;4.164;2023-07-29T09:52:44;3.55;;;1.33;;
76292;SDS011;67256;51.154;4.164;2023-07-29T09:55:13;2.28;;;1.52;;
76292;SDS011;67256;51.154;4.164;2023-07-29T09:57:47;4.22;;;1.48;;
76292;SDS011;67256;51.154;4.164;2023-07-29T10:00:28;2.25;;;1.63;;
76292;SDS011;67256;51.154;4.164;2023-07-29T10:02:54;5.57;;;1.67;;
76292;SDS011;67256;51.154;4.164;2023-07-29T10:05:22;2.33;;;1.38;;
76292;SDS011;67256;51.154;4.164;2023-07-29T10:07:49;3.05;;;1.35;;
76292;SDS011;67256;51.154;4.164;2023-07-29T10:10:15;2.63;;;1.45;;
76292;SDS011;67256;51.154;4.164;2023-07-29T10:12:41;5.07;;;1.30;;
76292;SDS011;67256;51.154;4.164;2023-07-29T10:15:08;2.85;;;1.67;;
76292;SDS011;67256;51.154;4.164;2023-07-29T10:17:34;5.47;;;1.30;;
76292;SDS011;67256;51.154;4.164;2023-07-29T10:20:02;4.53;;;1.50;;
76292;SDS011;67256;51.154;4.164;2023-07-29T10:22:33;4.45;;;1.42;;
76292;SDS011;67256;51.154;4.164;2023-07-29T10:25:04;1.70;;;1.13;;
76292;SDS011;67256;51.154;4.164;2023-07-29T10:27:35;2.78;;;1.48;;
76292;SDS011;67256;51.154;4.164;2023-07-29T10:30:24;2.85;;;1.20;;
76292;SDS011;67256;51.154;4.164;2023-07-29T10:32:50;2.10;;;0.90;;
76292;SDS011;67256;51.154;4.164;2023-07-29T10:35:18;2.28;;;1.20;;
76292;SDS011;67256;51.154;4.164;2023-07-29T10:37:44;4.63;;;1.27;;
76292;SDS011;67256;51.154;4.164;2023-07-29T10:40:10;1.70;;;1.30;;
76292;SDS011;67256;51.154;4.164;2023-07-29T10:42:37;5.97;;;1.40;;
76292;SDS011;67256;51.154;4.164;2023-07-29T10:45:25;3.05;;;1.58;;
76292;SDS011;67256;51.154;4.164;2023-07-29T10:47:50;4.90;;;1.60;;
76292;SDS011;67256;51.154;4.164;2023-07-29T10:50:19;2.10;;;1.30;;
76292;SDS011;67256;51.154;4.164;2023-07-29T10:52:52;2.42;;;1.27;;
76292;SDS011;67256;51.154;4.164;2023-07-29T10:55:36;4.85;;;1.60;;
76292;SDS011;67256;51.154;4.164;2023-07-29T10:58:10;4.30;;;1.70;;
76292;SDS011;67256;51.154;4.164;2023-07-29T11:00:38;9.40;;;3.08;;
76292;SDS011;67256;51.154;4.164;2023-07-29T11:03:08;3.78;;;1.83;;
76292;SDS011;67256;51.154;4.164;2023-07-29T11:05:44;3.40;;;1.90;;
76292;SDS011;67256;51.154;4.164;2023-07-29T11:08:17;5.20;;;2.45;;
76292;SDS011;67256;51.154;4.164;2023-07-29T11:11:02;4.43;;;2.25;;
76292;SDS011;67256;51.154;4.164;2023-07-29T11:13:34;2.97;;;1.88;;
76292;SDS011;67256;51.154;4.164;2023-07-29T11:16:01;4.97;;;2.08;;
76292;SDS011;67256;51.154;4.164;2023-07-29T11:18:28;7.70;;;2.65;;
76292;SDS011;67256;51.154;4.164;2023-07-29T11:20:55;5.03;;;2.17;;
76292;SDS011;67256;51.154;4.164;2023-07-29T11:23:32;4.55;;;2.85;;
76292;SDS011;67256;51.154;4.164;2023-07-29T11:28:27;3.58;;;2.20;;
76292;SDS011;67256;51.154;4.164;2023-07-29T11:30:57;4.68;;;2.00;;
76292;SDS011;67256;51.154;4.164;2023-07-29T11:35:53;3.95;;;2.10;;
76292;SDS011;67256;51.154;4.164;2023-07-29T11:38:20;3.80;;;2.35;;
76292;SDS011;67256;51.154;4.164;2023-07-29T11:41:00;2.67;;;1.45;;
76292;SDS011;67256;51.154;4.164;2023-07-29T11:43:28;3.22;;;1.38;;
76292;SDS011;67256;51.154;4.164;2023-07-29T11:45:54;3.15;;;1.65;;
76292;SDS011;67256;51.154;4.164;2023-07-29T11:48:26;2.80;;;1.48;;
76292;SDS011;67256;51.154;4.164;2023-07-29T11:50:58;2.40;;;1.20;;
76292;SDS011;67256;51.154;4.164;2023-07-29T11:53:33;1.90;;;1.15;;
76292;SDS011;67256;51.154;4.164;2023-07-29T11:55:58;5.60;;;1.48;;
76292;SDS011;67256;51.154;4.164;2023-07-29T11:58:24;1.50;;;0.98;;
76292;SDS011;67256;51.154;4.164;2023-07-29T12:00:51;1.92;;;1.15;;
76292;SDS011;67256;51.154;4.164;2023-07-29T12:03:17;3.03;;;0.98;;
76292;SDS011;67256;51.154;4.164;2023-07-29T12:05:43;2.35;;;0.90;;
76292;SDS011;67256;51.154;4.164;2023-07-29T12:08:09;1.38;;;0.90;;
76292;SDS011;67256;51.154;4.164;2023-07-29T12:10:36;2.17;;;0.95;;
76292;SDS011;67256;51.154;4.164;2023-07-29T12:13:02;1.88;;;1.23;;
76292;SDS011;67256;51.154;4.164;2023-07-29T12:15:28;2.15;;;1.00;;
76292;SDS011;67256;51.154;4.164;2023-07-29T12:17:55;2.60;;;1.10;;
76292;SDS011;67256;51.154;4.164;2023-07-29T12:20:22;1.42;;;0.90;;
76292;SDS011;67256;51.154;4.164;2023-07-29T12:22:55;2.50;;;1.30;;
76292;SDS011;67256;51.154;4.164;2023-07-29T12:25:22;2.55;;;1.67;;
76292;SDS011;67256;51.154;4.164;2023-07-29T12:27:48;1.90;;;1.20;;
76292;SDS011;67256;51.154;4.164;2023-07-29T12:30:14;2.67;;;1.10;;
76292;SDS011;67256;51.154;4.164;2023-07-29T12:32:45;1.45;;;0.90;;
76292;SDS011;67256;51.154;4.164;2023-07-29T12:35:11;4.07;;;1.10;;
76292;SDS011;67256;51.154;4.164;2023-07-29T12:37:37;1.92;;;1.10;;
76292;SDS011;67256;51.154;4.164;2023-07-29T12:40:07;2.45;;;1.23;;
76292;SDS011;67256;51.154;4.164;2023-07-29T12:42:34;2.17;;;1.10;;
76292;SDS011;67256;51.154;4.164;2023-07-29T12:45:00;2.88;;;1.30;;
76292;SDS011;67256;51.154;4.164;2023-07-29T12:47:25;3.05;;;1.42;;
76292;SDS011;67256;51.154;4.164;2023-07-29T12:49:51;3.28;;;1.52;;
76292;SDS011;67256;51.154;4.164;2023-07-29T12:52:17;3.35;;;1.23;;
76292;SDS011;67256;51.154;4.164;2023-07-29T12:54:43;2.40;;;1.20;;
76292;SDS011;67256;51.154;4.164;2023-07-29T12:57:09;2.80;;;1.30;;
76292;SDS011;67256;51.154;4.164;2023-07-29T12:59:35;2.15;;;1.02;;
76292;SDS011;67256;51.154;4.164;2023-07-29T13:02:00;2.22;;;1.25;;
76292;SDS011;67256;51.154;4.164;2023-07-29T13:04:27;2.17;;;1.33;;
76292;SDS011;67256;51.154;4.164;2023-07-29T13:06:52;2.58;;;1.20;;
76292;SDS011;67256;51.154;4.164;2023-07-29T13:09:18;2.67;;;1.30;;
76292;SDS011;67256;51.154;4.164;2023-07-29T13:11:44;3.72;;;1.42;;
76292;SDS011;67256;51.154;4.164;2023-07-29T13:14:09;3.03;;;1.35;;
76292;SDS011;67256;51.154;4.164;2023-07-29T13:16:35;2.58;;;1.40;;
76292;SDS011;67256;51.154;4.164;2023-07-29T13:19:01;2.25;;;1.27;;
76292;SDS011;67256;51.154;4.164;2023-07-29T13:21:26;6.72;;;1.38;;
76292;SDS011;67256;51.154;4.164;2023-07-29T13:23:52;2.13;;;1.10;;
76292;SDS011;67256;51.154;4.164;2023-07-29T13:26:18;2.00;;;0.93;;
76292;SDS011;67256;51.154;4.164;2023-07-29T13:28:44;2.67;;;1.05;;
76292;SDS011;67256;51.154;4.164;2023-07-29T13:31:09;2.92;;;0.90;;
76292;SDS011;67256;51.154;4.164;2023-07-29T13:33:35;2.70;;;1.27;;
76292;SDS011;67256;51.154;4.164;2023-07-29T13:36:01;3.30;;;1.25;;
76292;SDS011;67256;51.154;4.164;2023-07-29T13:38:29;2.47;;;1.50;;
76292;SDS011;67256;51.154;4.164;2023-07-29T13:40:55;1.50;;;1.00;;
76292;SDS011;67256;51.154;4.164;2023-07-29T13:43:21;2.60;;;1.00;;
76292;SDS011;67256;51.154;4.164;2023-07-29T13:45:47;3.38;;;1.50;;
76292;SDS011;67256;51.154;4.164;2023-07-29T13:48:15;4.82;;;1.17;;
76292;SDS011;67256;51.154;4.164;2023-07-29T13:50:40;3.88;;;1.30;;
76292;SDS011;67256;51.154;4.164;2023-07-29T13:53:07;1.60;;;0.93;;
76292;SDS011;67256;51.154;4.164;2023-07-29T13:55:33;3.53;;;1.40;;
76292;SDS011;67256;51.154;4.164;2023-07-29T13:57:59;2.38;;;1.23;;
76292;SDS011;67256;51.154;4.164;2023-07-29T14:00:24;2.45;;;1.00;;
76292;SDS011;67256;51.154;4.164;2023-07-29T14:02:50;3.28;;;1.15;;
76292;SDS011;67256;51.154;4.164;2023-07-29T14:05:17;1.67;;;1.13;;
76292;SDS011;67256;51.154;4.164;2023-07-29T14:07:42;2.00;;;1.30;;
76292;SDS011;67256;51.154;4.164;2023-07-29T14:10:08;2.75;;;1.20;;
76292;SDS011;67256;51.154;4.164;2023-07-29T14:12:34;3.58;;;1.40;;
76292;SDS011;67256;51.154;4.164;2023-07-29T14:15:00;4.75;;;1.48;;
76292;SDS011;67256;51.154;4.164;2023-07-29T14:17:26;4.18;;;1.48;;
76292;SDS011;67256;51.154;4.164;2023-07-29T14:19:51;5.25;;;1.48;;
76292;SDS011;67256;51.154;4.164;2023-07-29T14:22:17;3.00;;;1.50;;
76292;SDS011;67256;51.154;4.164;2023-07-29T14:24:43;2.28;;;1.20;;
76292;SDS011;67256;51.154;4.164;2023-07-29T14:27:09;2.90;;;1.60;;
76292;SDS011;67256;51.154;4.164;2023-07-29T14:29:35;2.95;;;1.30;;
76292;SDS011;67256;51.154;4.164;2023-07-29T14:32:00;3.83;;;1.73;;
76292;SDS011;67256;51.154;4.164;2023-07-29T14:34:26;2.83;;;1.20;;
76292;SDS011;67256;51.154;4.164;2023-07-29T14:36:52;4.00;;;1.30;;
76292;SDS011;67256;51.154;4.164;2023-07-29T14:39:17;3.78;;;1.45;;
76292;SDS011;67256;51.154;4.164;2023-07-29T14:41:43;2.47;;;1.27;;
76292;SDS011;67256;51.154;4.164;2023-07-29T14:44:09;3.22;;;1.17;;
76292;SDS011;67256;51.154;4.164;2023-07-29T14:46:35;2.60;;;1.10;;
76292;SDS011;67256;51.154;4.164;2023-07-29T14:49:00;2.05;;;0.90;;
76292;SDS011;67256;51.154;4.164;2023-07-29T14:51:26;1.80;;;0.88;;
76292;SDS011;67256;51.154;4.164;2023-07-29T14:53:52;2.35;;;0.90;;
76292;SDS011;67256;51.154;4.164;2023-07-29T14:56:17;1.02;;;0.80;;
76292;SDS011;67256;51.154;4.164;2023-07-29T14:58:43;2.05;;;0.90;;
76292;SDS011;67256;51.154;4.164;2023-07-29T15:01:10;4.55;;;1.20;;